sensor_id;sensor_type;location;lat;lon;timestamp;temperature;humidity
7317;DHT22;3699;51.462;6.696;2023-05-10T00:00:08;15.00;99.90
7317;DHT22;3699;51.462;6.696;2023-05-10T00:02:36;15.20;99.90
7317;DHT22;3699;51.462;6.696;2023-05-10T00:05:04;14.90;99.90
7317;DHT22;3699;51.462;6.696;2023-05-10T00:07:31;14.70;99.90
7317;DHT22;3699;51.462;6.696;2023-05-10T00:09:58;14.90;99.90
7317;DHT22;3699;51.462;6.696;2023-05-10T00:14:52;14.80;99.90
7317;DHT22;3699;51.462;6.696;2023-05-10T00:17:18;14.70;99.90
7317;DHT22;3699;51.462;6.696;2023-05-10T00:19:46;14.80;99.90
7317;DHT22;3699;51.462;6.696;2023-05-10T00:22:13;14.70;99.90
7317;DHT22;3699;51.462;6.696;2023-05-10T00:24:40;14.70;99.90
7317;DHT22;3699;51.462;6.696;2023-05-10T00:27:07;14.60;99.90
7317;DHT22;3699;51.462;6.696;2023-05-10T00:32:01;14.70;99.90
7317;DHT22;3699;51.462;6.696;2023-05-10T00:34:27;14.70;99.90
7317;DHT22;3699;51.462;6.696;2023-05-10T00:36:55;14.60;99.90
7317;DHT22;3699;51.462;6.696;2023-05-10T00:39:22;14.80;99.90
7317;DHT22;3699;51.462;6.696;2023-05-10T00:41:49;14.50;99.90
7317;DHT22;3699;51.462;6.696;2023-05-10T00:46:44;14.50;99.90
7317;DHT22;3699;51.462;6.696;2023-05-10T00:49:11;14.60;99.90
7317;DHT22;3699;51.462;6.696;2023-05-10T00:54:06;14.60;99.90
7317;DHT22;3699;51.462;6.696;2023-05-10T00:56:33;14.50;99.90
7317;DHT22;3699;51.462;6.696;2023-05-10T00:59:00;14.50;99.90
7317;DHT22;3699;51.462;6.696;2023-05-10T01:01:28;14.70;99.90
7317;DHT22;3699;51.462;6.696;2023-05-10T01:03:55;14.70;99.90
7317;DHT22;3699;51.462;6.696;2023-05-10T01:06:22;14.50;99.90
7317;DHT22;3699;51.462;6.696;2023-05-10T01:08:49;14.40;99.90
7317;DHT22;3699;51.462;6.696;2023-05-10T01:11:17;14.60;99.90
7317;DHT22;3699;51.462;6.696;2023-05-10T01:13:46;14.50;99.90
7317;DHT22;3699;51.462;6.696;2023-05-10T01:16:16;14.50;99.90
7317;DHT22;3699;51.462;6.696;2023-05-10T01:18:43;14.50;99.90
7317;DHT22;3699;51.462;6.696;2023-05-10T01:21:19;14.60;99.90
7317;DHT22;3699;51.462;6.696;2023-05-10T01:24:37;14.50;99.90
7317;DHT22;3699;51.462;6.696;2023-05-10T01:27:24;14.40;99.90
7317;DHT22;3699;51.462;6.696;2023-05-10T01:30:08;14.50;99.90
7317;DHT22;3699;51.462;6.696;2023-05-10T01:32:47;14.30;99.90
7317;DHT22;3699;51.462;6.696;2023-05-10T01:35:21;14.30;99.90
7317;DHT22;3699;51.462;6.696;2023-05-10T01:37:55;14.40;99.90
7317;DHT22;3699;51.462;6.696;2023-05-10T01:40:30;14.40;99.90
7317;DHT22;3699;51.462;6.696;2023-05-10T01:43:01;14.30;99.90
7317;DHT22;3699;51.462;6.696;2023-05-10T01:45:33;14.30;99.90
7317;DHT22;3699;51.462;6.696;2023-05-10T01:48:06;14.30;99.90
7317;DHT22;3699;51.462;6.696;2023-05-10T01:50:35;14.30;99.90
7317;DHT22;3699;51.462;6.696;2023-05-10T01:53:06;14.20;99.90
7317;DHT22;3699;51.462;6.696;2023-05-10T01:55:38;14.30;99.90
7317;DHT22;3699;51.462;6.696;2023-05-10T01:58:09;14.30;99.90
7317;DHT22;3699;51.462;6.696;2023-05-10T02:00:40;14.60;99.90
7317;DHT22;3699;51.462;6.696;2023-05-10T02:03:11;14.20;99.90
7317;DHT22;3699;51.462;6.696;2023-05-10T02:05:39;14.30;99.90
7317;DHT22;3699;51.462;6.696;2023-05-10T02:08:07;14.30;99.90
7317;DHT22;3699;51.462;6.696;2023-05-10T02:10:34;14.30;99.90
7317;DHT22;3699;51.462;6.696;2023-05-10T02:13:03;14.10;99.90
7317;DHT22;3699;51.462;6.696;2023-05-10T02:15:32;14.20;99.90
7317;DHT22;3699;51.462;6.696;2023-05-10T02:18:00;14.30;99.90
7317;DHT22;3699;51.462;6.696;2023-05-10T02:20:31;14.30;99.90
7317;DHT22;3699;51.462;6.696;2023-05-10T02:22:59;14.10;99.90
7317;DHT22;3699;51.462;6.696;2023-05-10T02:25:28;14.20;99.90
7317;DHT22;3699;51.462;6.696;2023-05-10T02:27:56;14.30;99.90
7317;DHT22;3699;51.462;6.696;2023-05-10T02:30:24;14.10;99.90
7317;DHT22;3699;51.462;6.696;2023-05-10T02:32:51;14.10;99.90
7317;DHT22;3699;51.462;6.696;2023-05-10T02:35:19;14.60;99.90
7317;DHT22;3699;51.462;6.696;2023-05-10T02:37:47;14.30;99.90
7317;DHT22;3699;51.462;6.696;2023-05-10T02:40:15;14.30;99.90
7317;DHT22;3699;51.462;6.696;2023-05-10T02:42:44;14.20;99.90
7317;DHT22;3699;51.462;6.696;2023-05-10T02:45:18;14.50;99.90
7317;DHT22;3699;51.462;6.696;2023-05-10T02:47:46;14.10;99.90
7317;DHT22;3699;51.462;6.696;2023-05-10T02:50:13;14.30;99.90
7317;DHT22;3699;51.462;6.696;2023-05-10T02:52:44;14.30;99.90
7317;DHT22;3699;51.462;6.696;2023-05-10T02:55:15;14.30;99.90
7317;DHT22;3699;51.462;6.696;2023-05-10T02:57:46;14.20;99.90
7317;DHT22;3699;51.462;6.696;2023-05-10T03:00:15;14.30;99.90
7317;DHT22;3699;51.462;6.696;2023-05-10T03:07:36;14.20;99.90
7317;DHT22;3699;51.462;6.696;2023-05-10T03:10:03;14.30;99.90
7317;DHT22;3699;51.462;6.696;2023-05-10T03:12:43;14.20;99.90
7317;DHT22;3699;51.462;6.696;2023-05-10T03:15:17;14.00;99.90
7317;DHT22;3699;51.462;6.696;2023-05-10T03:17:48;14.00;99.90
7317;DHT22;3699;51.462;6.696;2023-05-10T03:20:22;14.30;99.90
7317;DHT22;3699;51.462;6.696;2023-05-10T03:22:53;12.90;99.90
7317;DHT22;3699;51.462;6.696;2023-05-10T03:25:21;14.30;99.90
7317;DHT22;3699;51.462;6.696;2023-05-10T03:27:49;14.30;99.90
7317;DHT22;3699;51.462;6.696;2023-05-10T03:30:16;14.40;99.90
7317;DHT22;3699;51.462;6.696;2023-05-10T03:32:43;14.10;99.90
7317;DHT22;3699;51.462;6.696;2023-05-10T03:35:11;14.40;99.90
7317;DHT22;3699;51.462;6.696;2023-05-10T03:37:38;14.30;99.90
7317;DHT22;3699;51.462;6.696;2023-05-10T03:40:06;14.30;99.90
7317;DHT22;3699;51.462;6.696;2023-05-10T03:45:02;14.40;99.90
7317;DHT22;3699;51.462;6.696;2023-05-10T03:49:56;14.40;99.90
7317;DHT22;3699;51.462;6.696;2023-05-10T03:52:23;14.30;99.90
7317;DHT22;3699;51.462;6.696;2023-05-10T03:54:50;14.20;99.90
7317;DHT22;3699;51.462;6.696;2023-05-10T03:57:17;14.40;99.90
7317;DHT22;3699;51.462;6.696;2023-05-10T03:59:44;14.60;99.90
7317;DHT22;3699;51.462;6.696;2023-05-10T04:02:12;14.40;99.90
7317;DHT22;3699;51.462;6.696;2023-05-10T04:07:06;14.30;99.90
7317;DHT22;3699;51.462;6.696;2023-05-10T04:09:32;14.30;99.90
7317;DHT22;3699;51.462;6.696;2023-05-10T04:14:27;14.40;99.90
7317;DHT22;3699;51.462;6.696;2023-05-10T04:16:54;14.20;99.90
7317;DHT22;3699;51.462;6.696;2023-05-10T04:19:22;14.40;99.90
7317;DHT22;3699;51.462;6.696;2023-05-10T04:21:49;14.40;99.90
7317;DHT22;3699;51.462;6.696;2023-05-10T04:24:16;14.40;99.90
7317;DHT22;3699;51.462;6.696;2023-05-10T04:26:42;14.50;99.90
7317;DHT22;3699;51.462;6.696;2023-05-10T04:29:09;14.50;99.90
7317;DHT22;3699;51.462;6.696;2023-05-10T04:34:03;14.40;99.90
7317;DHT22;3699;51.462;6.696;2023-05-10T04:36:31;14.50;99.90
7317;DHT22;3699;51.462;6.696;2023-05-10T04:39:00;14.40;99.90
7317;DHT22;3699;51.462;6.696;2023-05-10T04:41:28;14.40;99.90
7317;DHT22;3699;51.462;6.696;2023-05-10T04:43:55;14.30;99.90
7317;DHT22;3699;51.462;6.696;2023-05-10T04:46:22;14.80;99.90
7317;DHT22;3699;51.462;6.696;2023-05-10T04:48:48;14.80;99.90
7317;DHT22;3699;51.462;6.696;2023-05-10T04:51:15;14.70;99.90
7317;DHT22;3699;51.462;6.696;2023-05-10T04:53:43;14.60;99.90
7317;DHT22;3699;51.462;6.696;2023-05-10T04:58:37;14.70;99.90
7317;DHT22;3699;51.462;6.696;2023-05-10T05:01:07;14.80;99.90
7317;DHT22;3699;51.462;6.696;2023-05-10T05:03:35;14.70;99.90
7317;DHT22;3699;51.462;6.696;2023-05-10T05:06:03;15.10;99.90
7317;DHT22;3699;51.462;6.696;2023-05-10T05:08:29;15.10;99.90
7317;DHT22;3699;51.462;6.696;2023-05-10T05:10:57;14.70;99.90
7317;DHT22;3699;51.462;6.696;2023-05-10T05:13:24;14.80;99.90
7317;DHT22;3699;51.462;6.696;2023-05-10T05:15:51;14.90;99.90
7317;DHT22;3699;51.462;6.696;2023-05-10T05:18:18;15.10;99.90
7317;DHT22;3699;51.462;6.696;2023-05-10T05:23:12;15.10;99.90
7317;DHT22;3699;51.462;6.696;2023-05-10T05:25:39;15.10;99.90
7317;DHT22;3699;51.462;6.696;2023-05-10T05:28:07;15.20;99.90
7317;DHT22;3699;51.462;6.696;2023-05-10T05:30:34;15.20;99.90
7317;DHT22;3699;51.462;6.696;2023-05-10T05:33:01;15.00;99.90
7317;DHT22;3699;51.462;6.696;2023-05-10T05:35:27;14.90;99.90
7317;DHT22;3699;51.462;6.696;2023-05-10T05:37:54;15.00;99.90
7317;DHT22;3699;51.462;6.696;2023-05-10T05:40:21;15.00;99.90
7317;DHT22;3699;51.462;6.696;2023-05-10T05:42:48;15.00;99.90
7317;DHT22;3699;51.462;6.696;2023-05-10T05:45:16;15.10;99.90
7317;DHT22;3699;51.462;6.696;2023-05-10T05:47:43;15.30;99.90
7317;DHT22;3699;51.462;6.696;2023-05-10T05:50:10;15.10;99.90
7317;DHT22;3699;51.462;6.696;2023-05-10T05:55:04;15.50;99.90
7317;DHT22;3699;51.462;6.696;2023-05-10T05:57:31;15.10;99.90
7317;DHT22;3699;51.462;6.696;2023-05-10T05:59:58;15.10;99.90
7317;DHT22;3699;51.462;6.696;2023-05-10T06:02:26;15.10;99.90
7317;DHT22;3699;51.462;6.696;2023-05-10T06:04:53;15.10;99.90
7317;DHT22;3699;51.462;6.696;2023-05-10T06:07:19;15.40;99.90
7317;DHT22;3699;51.462;6.696;2023-05-10T06:09:46;15.50;99.90
7317;DHT22;3699;51.462;6.696;2023-05-10T06:14:40;15.40;99.90
7317;DHT22;3699;51.462;6.696;2023-05-10T06:17:07;14.80;99.90
7317;DHT22;3699;51.462;6.696;2023-05-10T06:19:35;15.50;99.90
7317;DHT22;3699;51.462;6.696;2023-05-10T06:22:02;15.10;99.90
7317;DHT22;3699;51.462;6.696;2023-05-10T06:26:56;15.40;99.90
7317;DHT22;3699;51.462;6.696;2023-05-10T06:29:25;15.40;99.90
7317;DHT22;3699;51.462;6.696;2023-05-10T06:31:52;15.20;99.90
7317;DHT22;3699;51.462;6.696;2023-05-10T06:36:47;15.20;99.90
7317;DHT22;3699;51.462;6.696;2023-05-10T06:39:14;15.30;99.90
7317;DHT22;3699;51.462;6.696;2023-05-10T06:44:08;15.50;99.90
7317;DHT22;3699;51.462;6.696;2023-05-10T06:46:36;15.60;99.90
7317;DHT22;3699;51.462;6.696;2023-05-10T06:51:29;15.50;99.90
7317;DHT22;3699;51.462;6.696;2023-05-10T06:53:58;15.40;99.90
7317;DHT22;3699;51.462;6.696;2023-05-10T06:58:51;15.50;99.90
7317;DHT22;3699;51.462;6.696;2023-05-10T07:06:12;15.50;99.90
7317;DHT22;3699;51.462;6.696;2023-05-10T07:11:08;15.70;99.90
7317;DHT22;3699;51.462;6.696;2023-05-10T07:13:35;15.90;99.90
7317;DHT22;3699;51.462;6.696;2023-05-10T07:16:04;15.90;99.90
7317;DHT22;3699;51.462;6.696;2023-05-10T07:18:31;15.70;99.90
7317;DHT22;3699;51.462;6.696;2023-05-10T07:20:58;15.80;99.90
7317;DHT22;3699;51.462;6.696;2023-05-10T07:23:25;15.70;99.90
7317;DHT22;3699;51.462;6.696;2023-05-10T07:28:20;15.90;99.90
7317;DHT22;3699;51.462;6.696;2023-05-10T07:30:47;15.80;99.90
7317;DHT22;3699;51.462;6.696;2023-05-10T07:33:14;16.10;99.90
7317;DHT22;3699;51.462;6.696;2023-05-10T07:35:41;16.10;99.90
7317;DHT22;3699;51.462;6.696;2023-05-10T07:45:33;16.70;99.90
7317;DHT22;3699;51.462;6.696;2023-05-10T07:48:00;16.90;99.90
7317;DHT22;3699;51.462;6.696;2023-05-10T07:52:54;17.20;99.90
7317;DHT22;3699;51.462;6.696;2023-05-10T07:55:20;17.30;99.90
7317;DHT22;3699;51.462;6.696;2023-05-10T07:57:47;17.70;99.90
7317;DHT22;3699;51.462;6.696;2023-05-10T08:00:17;17.40;99.90
7317;DHT22;3699;51.462;6.696;2023-05-10T08:02:46;17.40;99.90
7317;DHT22;3699;51.462;6.696;2023-05-10T08:05:15;17.50;99.90
7317;DHT22;3699;51.462;6.696;2023-05-10T08:07:42;17.50;99.90
7317;DHT22;3699;51.462;6.696;2023-05-10T08:10:09;17.50;99.90
7317;DHT22;3699;51.462;6.696;2023-05-10T08:12:37;17.50;99.90
7317;DHT22;3699;51.462;6.696;2023-05-10T08:15:05;17.60;99.90
7317;DHT22;3699;51.462;6.696;2023-05-10T08:17:32;17.50;99.90
7317;DHT22;3699;51.462;6.696;2023-05-10T08:20:00;17.60;99.90
7317;DHT22;3699;51.462;6.696;2023-05-10T08:22:26;17.70;99.90
7317;DHT22;3699;51.462;6.696;2023-05-10T08:27:20;17.80;99.90
7317;DHT22;3699;51.462;6.696;2023-05-10T08:29:47;18.30;99.90
7317;DHT22;3699;51.462;6.696;2023-05-10T08:32:13;18.50;99.90
7317;DHT22;3699;51.462;6.696;2023-05-10T08:34:40;18.70;99.90
7317;DHT22;3699;51.462;6.696;2023-05-10T08:37:08;18.80;99.90
7317;DHT22;3699;51.462;6.696;2023-05-10T08:39:38;18.80;99.90
7317;DHT22;3699;51.462;6.696;2023-05-10T08:44:32;18.70;99.90
7317;DHT22;3699;51.462;6.696;2023-05-10T08:47:04;18.70;99.90
7317;DHT22;3699;51.462;6.696;2023-05-10T08:49:32;18.60;99.90
7317;DHT22;3699;51.462;6.696;2023-05-10T08:52:02;18.70;99.90
7317;DHT22;3699;51.462;6.696;2023-05-10T08:54:31;18.70;99.90
7317;DHT22;3699;51.462;6.696;2023-05-10T08:56:58;18.70;99.90
7317;DHT22;3699;51.462;6.696;2023-05-10T08:59:25;18.80;99.90
7317;DHT22;3699;51.462;6.696;2023-05-10T09:01:52;19.00;99.90
7317;DHT22;3699;51.462;6.696;2023-05-10T09:04:21;19.30;99.90
7317;DHT22;3699;51.462;6.696;2023-05-10T09:06:47;19.30;99.90
7317;DHT22;3699;51.462;6.696;2023-05-10T09:11:43;19.10;99.90
7317;DHT22;3699;51.462;6.696;2023-05-10T09:14:11;18.80;99.90
7317;DHT22;3699;51.462;6.696;2023-05-10T09:16:40;18.90;99.90
7317;DHT22;3699;51.462;6.696;2023-05-10T09:19:08;18.60;99.90
7317;DHT22;3699;51.462;6.696;2023-05-10T09:21:35;18.60;99.90
7317;DHT22;3699;51.462;6.696;2023-05-10T09:26:31;18.70;99.90
7317;DHT22;3699;51.462;6.696;2023-05-10T09:29:00;18.40;99.90
7317;DHT22;3699;51.462;6.696;2023-05-10T09:31:44;18.40;99.90
7317;DHT22;3699;51.462;6.696;2023-05-10T09:34:15;18.40;99.90
7317;DHT22;3699;51.462;6.696;2023-05-10T09:37:01;18.20;99.90
7317;DHT22;3699;51.462;6.696;2023-05-10T09:39:33;18.30;99.90
7317;DHT22;3699;51.462;6.696;2023-05-10T09:42:01;18.10;99.90
7317;DHT22;3699;51.462;6.696;2023-05-10T09:44:31;17.90;99.90
7317;DHT22;3699;51.462;6.696;2023-05-10T09:49:25;17.50;99.90
7317;DHT22;3699;51.462;6.696;2023-05-10T09:52:00;17.20;99.90
7317;DHT22;3699;51.462;6.696;2023-05-10T09:54:28;17.30;99.90
7317;DHT22;3699;51.462;6.696;2023-05-10T09:56:54;17.10;99.90
7317;DHT22;3699;51.462;6.696;2023-05-10T10:01:53;16.80;99.90
7317;DHT22;3699;51.462;6.696;2023-05-10T10:04:22;16.80;99.90
7317;DHT22;3699;51.462;6.696;2023-05-10T10:06:58;16.80;99.90
7317;DHT22;3699;51.462;6.696;2023-05-10T10:09:25;16.60;99.90
7317;DHT22;3699;51.462;6.696;2023-05-10T10:11:54;16.80;99.90
7317;DHT22;3699;51.462;6.696;2023-05-10T10:14:21;16.80;99.90
7317;DHT22;3699;51.462;6.696;2023-05-10T10:16:49;17.00;99.90
7317;DHT22;3699;51.462;6.696;2023-05-10T10:19:17;16.90;99.90
7317;DHT22;3699;51.462;6.696;2023-05-10T10:21:44;16.90;99.90
7317;DHT22;3699;51.462;6.696;2023-05-10T10:24:11;17.00;99.90
7317;DHT22;3699;51.462;6.696;2023-05-10T10:26:38;17.00;99.90
7317;DHT22;3699;51.462;6.696;2023-05-10T10:29:15;17.10;99.90
7317;DHT22;3699;51.462;6.696;2023-05-10T10:31:47;17.10;99.90
7317;DHT22;3699;51.462;6.696;2023-05-10T10:34:25;17.30;99.90
7317;DHT22;3699;51.462;6.696;2023-05-10T10:36:52;17.20;99.90
7317;DHT22;3699;51.462;6.696;2023-05-10T10:39:20;17.20;99.90
7317;DHT22;3699;51.462;6.696;2023-05-10T10:41:51;17.30;99.90
7317;DHT22;3699;51.462;6.696;2023-05-10T10:44:42;17.50;99.90
7317;DHT22;3699;51.462;6.696;2023-05-10T10:47:22;17.40;99.90
7317;DHT22;3699;51.462;6.696;2023-05-10T10:49:54;17.40;99.90
7317;DHT22;3699;51.462;6.696;2023-05-10T10:52:31;17.20;99.90
7317;DHT22;3699;51.462;6.696;2023-05-10T10:55:01;17.20;99.90
7317;DHT22;3699;51.462;6.696;2023-05-10T10:57:31;17.50;99.90
7317;DHT22;3699;51.462;6.696;2023-05-10T11:00:18;17.40;99.90
7317;DHT22;3699;51.462;6.696;2023-05-10T11:02:45;17.50;99.90
7317;DHT22;3699;51.462;6.696;2023-05-10T11:05:33;17.60;99.90
7317;DHT22;3699;51.462;6.696;2023-05-10T11:08:07;17.80;99.90
7317;DHT22;3699;51.462;6.696;2023-05-10T11:10:34;18.00;99.90
7317;DHT22;3699;51.462;6.696;2023-05-10T11:13:01;18.20;99.90
7317;DHT22;3699;51.462;6.696;2023-05-10T11:15:29;18.50;99.90
7317;DHT22;3699;51.462;6.696;2023-05-10T11:17:56;18.50;99.90
7317;DHT22;3699;51.462;6.696;2023-05-10T11:20:27;18.80;99.90
7317;DHT22;3699;51.462;6.696;2023-05-10T11:23:11;19.00;99.90
7317;DHT22;3699;51.462;6.696;2023-05-10T11:25:41;19.10;99.90
7317;DHT22;3699;51.462;6.696;2023-05-10T11:28:09;19.00;99.90
7317;DHT22;3699;51.462;6.696;2023-05-10T11:35:37;18.90;99.90
7317;DHT22;3699;51.462;6.696;2023-05-10T11:38:06;18.80;99.90
7317;DHT22;3699;51.462;6.696;2023-05-10T11:42:59;17.80;99.90
7317;DHT22;3699;51.462;6.696;2023-05-10T11:45:26;18.50;99.90
7317;DHT22;3699;51.462;6.696;2023-05-10T11:47:54;18.30;99.90
7317;DHT22;3699;51.462;6.696;2023-05-10T11:50:21;18.40;99.90
7317;DHT22;3699;51.462;6.696;2023-05-10T11:52:52;18.20;99.90
7317;DHT22;3699;51.462;6.696;2023-05-10T11:55:19;18.20;99.90
7317;DHT22;3699;51.462;6.696;2023-05-10T11:57:46;18.10;99.90
7317;DHT22;3699;51.462;6.696;2023-05-10T12:00:13;18.10;99.90
7317;DHT22;3699;51.462;6.696;2023-05-10T12:02:40;17.90;99.90
7317;DHT22;3699;51.462;6.696;2023-05-10T12:05:08;18.00;99.90
7317;DHT22;3699;51.462;6.696;2023-05-10T12:10:05;18.00;99.90
7317;DHT22;3699;51.462;6.696;2023-05-10T12:12:37;18.20;99.90
7317;DHT22;3699;51.462;6.696;2023-05-10T12:15:05;18.30;99.90
7317;DHT22;3699;51.462;6.696;2023-05-10T12:17:37;18.30;99.90
7317;DHT22;3699;51.462;6.696;2023-05-10T12:20:15;18.30;99.90
7317;DHT22;3699;51.462;6.696;2023-05-10T12:22:48;18.10;99.90
7317;DHT22;3699;51.462;6.696;2023-05-10T12:25:17;18.50;99.90
7317;DHT22;3699;51.462;6.696;2023-05-10T12:27:51;18.60;99.90
7317;DHT22;3699;51.462;6.696;2023-05-10T12:30:22;18.90;99.90
7317;DHT22;3699;51.462;6.696;2023-05-10T12:32:49;19.30;99.90
7317;DHT22;3699;51.462;6.696;2023-05-10T12:35:16;19.30;99.90
7317;DHT22;3699;51.462;6.696;2023-05-10T12:37:46;19.60;99.90
7317;DHT22;3699;51.462;6.696;2023-05-10T12:40:13;20.20;99.90
7317;DHT22;3699;51.462;6.696;2023-05-10T12:42:41;20.40;99.90
7317;DHT22;3699;51.462;6.696;2023-05-10T12:45:11;20.70;99.90
7317;DHT22;3699;51.462;6.696;2023-05-10T12:50:05;20.90;99.90
7317;DHT22;3699;51.462;6.696;2023-05-10T12:52:32;21.10;99.90
7317;DHT22;3699;51.462;6.696;2023-05-10T12:57:27;21.50;99.90
7317;DHT22;3699;51.462;6.696;2023-05-10T12:59:55;21.70;99.90
7317;DHT22;3699;51.462;6.696;2023-05-10T13:02:22;21.90;99.90
7317;DHT22;3699;51.462;6.696;2023-05-10T13:04:49;21.90;99.90
7317;DHT22;3699;51.462;6.696;2023-05-10T13:07:16;21.90;99.90
7317;DHT22;3699;51.462;6.696;2023-05-10T13:14:37;21.20;99.90
7317;DHT22;3699;51.462;6.696;2023-05-10T13:17:07;21.00;99.90
7317;DHT22;3699;51.462;6.696;2023-05-10T13:19:34;21.00;99.90
7317;DHT22;3699;51.462;6.696;2023-05-10T13:24:27;21.00;99.90
7317;DHT22;3699;51.462;6.696;2023-05-10T13:26:54;21.00;99.90
7317;DHT22;3699;51.462;6.696;2023-05-10T13:29:21;21.30;99.90
7317;DHT22;3699;51.462;6.696;2023-05-10T13:31:48;21.40;99.90
7317;DHT22;3699;51.462;6.696;2023-05-10T13:34:16;21.30;99.90
7317;DHT22;3699;51.462;6.696;2023-05-10T13:36:46;21.30;99.90
7317;DHT22;3699;51.462;6.696;2023-05-10T13:39:12;21.50;99.90
7317;DHT22;3699;51.462;6.696;2023-05-10T13:41:39;21.30;99.90
7317;DHT22;3699;51.462;6.696;2023-05-10T13:46:33;21.30;99.90
7317;DHT22;3699;51.462;6.696;2023-05-10T13:49:00;21.20;99.90
7317;DHT22;3699;51.462;6.696;2023-05-10T13:51:28;21.10;99.90
7317;DHT22;3699;51.462;6.696;2023-05-10T13:53:57;20.80;99.90
7317;DHT22;3699;51.462;6.696;2023-05-10T13:58:50;20.40;99.90
7317;DHT22;3699;51.462;6.696;2023-05-10T14:03:44;20.80;99.90
7317;DHT22;3699;51.462;6.696;2023-05-10T14:06:11;22.50;99.90
7317;DHT22;3699;51.462;6.696;2023-05-10T14:08:39;21.40;99.90
7317;DHT22;3699;51.462;6.696;2023-05-10T14:11:07;21.50;99.90
7317;DHT22;3699;51.462;6.696;2023-05-10T14:13:34;21.40;99.90
7317;DHT22;3699;51.462;6.696;2023-05-10T14:16:01;21.60;99.90
7317;DHT22;3699;51.462;6.696;2023-05-10T14:18:28;21.70;99.90
7317;DHT22;3699;51.462;6.696;2023-05-10T14:20:54;21.50;99.90
7317;DHT22;3699;51.462;6.696;2023-05-10T14:23:21;21.60;99.90
7317;DHT22;3699;51.462;6.696;2023-05-10T14:25:52;21.50;99.20
7317;DHT22;3699;51.462;6.696;2023-05-10T14:30:48;21.40;99.90
7317;DHT22;3699;51.462;6.696;2023-05-10T14:33:14;21.20;99.90
7317;DHT22;3699;51.462;6.696;2023-05-10T14:35:41;21.00;99.90
7317;DHT22;3699;51.462;6.696;2023-05-10T14:38:08;20.80;99.90
7317;DHT22;3699;51.462;6.696;2023-05-10T14:40:36;21.00;99.90
7317;DHT22;3699;51.462;6.696;2023-05-10T14:43:04;20.90;99.90
7317;DHT22;3699;51.462;6.696;2023-05-10T14:45:31;20.80;99.90
7317;DHT22;3699;51.462;6.696;2023-05-10T14:47:58;20.70;99.90
7317;DHT22;3699;51.462;6.696;2023-05-10T14:50:25;20.80;99.90
7317;DHT22;3699;51.462;6.696;2023-05-10T14:57:46;20.60;99.90
7317;DHT22;3699;51.462;6.696;2023-05-10T15:00:17;20.50;99.90
7317;DHT22;3699;51.462;6.696;2023-05-10T15:02:44;20.40;99.90
7317;DHT22;3699;51.462;6.696;2023-05-10T15:05:11;20.40;99.90
7317;DHT22;3699;51.462;6.696;2023-05-10T15:07:38;20.40;99.90
7317;DHT22;3699;51.462;6.696;2023-05-10T15:10:06;20.20;99.90
7317;DHT22;3699;51.462;6.696;2023-05-10T15:12:33;20.00;99.90
7317;DHT22;3699;51.462;6.696;2023-05-10T15:14:59;20.10;99.90
7317;DHT22;3699;51.462;6.696;2023-05-10T15:17:28;19.90;99.90
7317;DHT22;3699;51.462;6.696;2023-05-10T15:19:54;19.90;99.90
7317;DHT22;3699;51.462;6.696;2023-05-10T15:22:23;19.70;99.90
7317;DHT22;3699;51.462;6.696;2023-05-10T15:24:49;19.90;99.90
7317;DHT22;3699;51.462;6.696;2023-05-10T15:29:43;19.90;99.90
7317;DHT22;3699;51.462;6.696;2023-05-10T15:34:38;19.30;99.90
7317;DHT22;3699;51.462;6.696;2023-05-10T15:37:05;18.80;99.90
7317;DHT22;3699;51.462;6.696;2023-05-10T15:44:27;18.00;99.90
7317;DHT22;3699;51.462;6.696;2023-05-10T15:46:53;18.00;99.90
7317;DHT22;3699;51.462;6.696;2023-05-10T15:49:20;17.60;99.90
7317;DHT22;3699;51.462;6.696;2023-05-10T15:51:48;17.50;99.90
7317;DHT22;3699;51.462;6.696;2023-05-10T15:54:15;17.00;99.90
7317;DHT22;3699;51.462;6.696;2023-05-10T15:56:41;17.00;99.90
7317;DHT22;3699;51.462;6.696;2023-05-10T16:04:03;16.70;99.90
7317;DHT22;3699;51.462;6.696;2023-05-10T16:09:00;16.50;99.90
7317;DHT22;3699;51.462;6.696;2023-05-10T16:11:26;16.60;99.90
7317;DHT22;3699;51.462;6.696;2023-05-10T16:13:53;16.40;99.90
7317;DHT22;3699;51.462;6.696;2023-05-10T16:16:20;16.60;99.90
7317;DHT22;3699;51.462;6.696;2023-05-10T16:23:41;16.30;99.90
7317;DHT22;3699;51.462;6.696;2023-05-10T16:26:12;16.30;99.90
7317;DHT22;3699;51.462;6.696;2023-05-10T16:28:39;16.60;99.90
7317;DHT22;3699;51.462;6.696;2023-05-10T16:31:05;16.20;99.90
7317;DHT22;3699;51.462;6.696;2023-05-10T16:35:59;16.30;99.90
7317;DHT22;3699;51.462;6.696;2023-05-10T16:38:26;16.40;99.90
7317;DHT22;3699;51.462;6.696;2023-05-10T16:43:23;16.60;99.90
7317;DHT22;3699;51.462;6.696;2023-05-10T16:53:11;16.60;99.90
7317;DHT22;3699;51.462;6.696;2023-05-10T16:58:04;16.50;99.90
7317;DHT22;3699;51.462;6.696;2023-05-10T17:00:33;16.50;99.90
7317;DHT22;3699;51.462;6.696;2023-05-10T17:02:59;16.30;99.90
7317;DHT22;3699;51.462;6.696;2023-05-10T17:05:26;16.60;99.90
7317;DHT22;3699;51.462;6.696;2023-05-10T17:10:20;16.50;99.90
7317;DHT22;3699;51.462;6.696;2023-05-10T17:15:14;16.40;99.90
7317;DHT22;3699;51.462;6.696;2023-05-10T17:17:44;16.10;99.90
7317;DHT22;3699;51.462;6.696;2023-05-10T17:20:11;16.20;99.90
7317;DHT22;3699;51.462;6.696;2023-05-10T17:25:06;16.00;99.90
7317;DHT22;3699;51.462;6.696;2023-05-10T17:27:33;16.20;99.90
7317;DHT22;3699;51.462;6.696;2023-05-10T17:32:27;15.80;99.90
7317;DHT22;3699;51.462;6.696;2023-05-10T17:34:55;16.20;99.90
7317;DHT22;3699;51.462;6.696;2023-05-10T17:37:22;15.80;99.90
7317;DHT22;3699;51.462;6.696;2023-05-10T17:39:48;15.80;99.90
7317;DHT22;3699;51.462;6.696;2023-05-10T17:42:15;15.90;99.90
7317;DHT22;3699;51.462;6.696;2023-05-10T17:44:43;15.80;99.90
7317;DHT22;3699;51.462;6.696;2023-05-10T17:47:10;15.80;99.90
7317;DHT22;3699;51.462;6.696;2023-05-10T17:49:37;15.70;99.90
7317;DHT22;3699;51.462;6.696;2023-05-10T17:52:06;15.80;99.90
7317;DHT22;3699;51.462;6.696;2023-05-10T17:54:32;16.00;99.90
7317;DHT22;3699;51.462;6.696;2023-05-10T17:56:59;15.70;99.90
7317;DHT22;3699;51.462;6.696;2023-05-10T18:01:53;15.60;99.90
7317;DHT22;3699;51.462;6.696;2023-05-10T18:04:20;15.80;99.90
7317;DHT22;3699;51.462;6.696;2023-05-10T18:06:47;15.90;99.90
7317;DHT22;3699;51.462;6.696;2023-05-10T18:09:15;15.80;99.90
7317;DHT22;3699;51.462;6.696;2023-05-10T18:11:42;15.80;99.90
7317;DHT22;3699;51.462;6.696;2023-05-10T18:14:09;15.90;99.90
7317;DHT22;3699;51.462;6.696;2023-05-10T18:16:35;15.90;99.90
7317;DHT22;3699;51.462;6.696;2023-05-10T18:19:02;16.00;99.90
7317;DHT22;3699;51.462;6.696;2023-05-10T18:21:29;15.90;99.90
7317;DHT22;3699;51.462;6.696;2023-05-10T18:26:24;16.00;99.90
7317;DHT22;3699;51.462;6.696;2023-05-10T18:28:52;15.80;99.90
7317;DHT22;3699;51.462;6.696;2023-05-10T18:31:18;15.80;99.90
7317;DHT22;3699;51.462;6.696;2023-05-10T18:33:45;15.90;99.90
7317;DHT22;3699;51.462;6.696;2023-05-10T18:36:12;16.10;99.90
7317;DHT22;3699;51.462;6.696;2023-05-10T18:41:06;15.70;99.90
7317;DHT22;3699;51.462;6.696;2023-05-10T18:43:38;15.70;99.90
7317;DHT22;3699;51.462;6.696;2023-05-10T18:48:33;15.70;99.90
7317;DHT22;3699;51.462;6.696;2023-05-10T18:51:00;15.60;99.90
7317;DHT22;3699;51.462;6.696;2023-05-10T18:53:27;15.60;99.90
7317;DHT22;3699;51.462;6.696;2023-05-10T18:55:54;15.50;99.90
7317;DHT22;3699;51.462;6.696;2023-05-10T18:58:23;15.50;99.90
7317;DHT22;3699;51.462;6.696;2023-05-10T19:00:52;15.40;99.90
7317;DHT22;3699;51.462;6.696;2023-05-10T19:03:19;15.40;99.90
7317;DHT22;3699;51.462;6.696;2023-05-10T19:05:46;15.40;99.90